West Point, Mississippi
Current Conditions -  °F | °C
As of 11:50 AM on Saturday 25 Oct 2014 (Local Time) from KGTR Reporting Station
Clear Clear  
Wind Chill: 75°   Ceiling: Unl
Heat Index: 75°   Visibility: 10mi
Dew Point: 57°   Wind: 7mph
Humidity: 53%   Direction: 320°NW
Pressure: 30.13"   Gusts: NA
Location:  33.61°N, 88.65°W
Report Text: KGTR 251650Z 32006KT 10SM SKC 24/14 A3013
Loading
Personal Weather Stations






























Interactive Weather Map
Tropical Storm Tracking
New forecast layout! Learn more

10-Day Weather Forecast

Advertisements
Track Severe Weather on mobile